sensor_id;sensor_type;location;lat;lon;timestamp;P1;durP1;ratioP1;P2;durP2;ratioP2
42632;SDS011;28261;53.304;-6.284;2023-02-28T00:01:10;3.75;;;1.92;;
42632;SDS011;28261;53.304;-6.284;2023-02-28T00:03:14;6.07;;;2.25;;
42632;SDS011;28261;53.304;-6.284;2023-02-28T00:05:19;3.20;;;1.77;;
42632;SDS011;28261;53.304;-6.284;2023-02-28T00:07:23;4.97;;;1.30;;
42632;SDS011;28261;53.304;-6.284;2023-02-28T00:09:27;3.97;;;2.00;;
42632;SDS011;28261;53.304;-6.284;2023-02-28T00:11:30;4.30;;;1.83;;
42632;SDS011;28261;53.304;-6.284;2023-02-28T00:13:35;4.65;;;1.80;;
42632;SDS011;28261;53.304;-6.284;2023-02-28T00:15:39;4.18;;;2.35;;
42632;SDS011;28261;53.304;-6.284;2023-02-28T00:17:45;3.83;;;1.65;;
42632;SDS011;28261;53.304;-6.284;2023-02-28T00:19:48;3.40;;;1.40;;
42632;SDS011;28261;53.304;-6.284;2023-02-28T00:21:52;3.55;;;1.25;;
42632;SDS011;28261;53.304;-6.284;2023-02-28T00:23:56;7.32;;;1.95;;
42632;SDS011;28261;53.304;-6.284;2023-02-28T00:26:00;3.97;;;1.92;;
42632;SDS011;28261;53.304;-6.284;2023-02-28T00:28:04;4.13;;;1.52;;
42632;SDS011;28261;53.304;-6.284;2023-02-28T00:30:08;4.53;;;2.25;;
42632;SDS011;28261;53.304;-6.284;2023-02-28T00:32:14;3.97;;;1.80;;
42632;SDS011;28261;53.304;-6.284;2023-02-28T00:34:19;4.30;;;1.98;;
42632;SDS011;28261;53.304;-6.284;2023-02-28T00:36:22;5.82;;;2.28;;
42632;SDS011;28261;53.304;-6.284;2023-02-28T00:38:26;3.10;;;2.08;;
42632;SDS011;28261;53.304;-6.284;2023-02-28T00:40:29;3.30;;;2.17;;
42632;SDS011;28261;53.304;-6.284;2023-02-28T00:42:33;6.40;;;2.00;;
42632;SDS011;28261;53.304;-6.284;2023-02-28T00:44:37;5.82;;;2.05;;
42632;SDS011;28261;53.304;-6.284;2023-02-28T00:46:41;4.47;;;1.70;;
42632;SDS011;28261;53.304;-6.284;2023-02-28T00:48:44;3.05;;;1.65;;
42632;SDS011;28261;53.304;-6.284;2023-02-28T00:50:50;3.50;;;1.67;;
42632;SDS011;28261;53.304;-6.284;2023-02-28T00:52:53;6.70;;;1.30;;
42632;SDS011;28261;53.304;-6.284;2023-02-28T00:54:57;3.83;;;1.70;;
42632;SDS011;28261;53.304;-6.284;2023-02-28T00:57:01;4.50;;;2.10;;
42632;SDS011;28261;53.304;-6.284;2023-02-28T00:59:06;8.85;;;1.60;;
42632;SDS011;28261;53.304;-6.284;2023-02-28T01:01:09;3.60;;;1.67;;
42632;SDS011;28261;53.304;-6.284;2023-02-28T01:03:13;6.50;;;1.73;;
42632;SDS011;28261;53.304;-6.284;2023-02-28T01:05:17;5.45;;;1.80;;
42632;SDS011;28261;53.304;-6.284;2023-02-28T01:07:22;5.25;;;1.63;;
42632;SDS011;28261;53.304;-6.284;2023-02-28T01:09:27;3.83;;;1.80;;
42632;SDS011;28261;53.304;-6.284;2023-02-28T01:11:32;1.70;;;1.23;;
42632;SDS011;28261;53.304;-6.284;2023-02-28T01:13:37;3.38;;;1.63;;
42632;SDS011;28261;53.304;-6.284;2023-02-28T01:15:45;2.20;;;1.52;;
42632;SDS011;28261;53.304;-6.284;2023-02-28T01:17:53;4.43;;;1.45;;
42632;SDS011;28261;53.304;-6.284;2023-02-28T01:19:56;3.00;;;1.40;;
42632;SDS011;28261;53.304;-6.284;2023-02-28T01:22:00;3.65;;;1.50;;
42632;SDS011;28261;53.304;-6.284;2023-02-28T01:24:06;2.78;;;1.02;;
42632;SDS011;28261;53.304;-6.284;2023-02-28T01:26:12;2.80;;;1.23;;
42632;SDS011;28261;53.304;-6.284;2023-02-28T01:28:16;3.40;;;1.23;;
42632;SDS011;28261;53.304;-6.284;2023-02-28T01:30:20;2.63;;;1.60;;
42632;SDS011;28261;53.304;-6.284;2023-02-28T01:32:24;5.97;;;1.30;;
42632;SDS011;28261;53.304;-6.284;2023-02-28T01:34:27;5.72;;;1.58;;
42632;SDS011;28261;53.304;-6.284;2023-02-28T01:36:31;2.38;;;1.10;;
42632;SDS011;28261;53.304;-6.284;2023-02-28T01:38:34;1.98;;;1.40;;
42632;SDS011;28261;53.304;-6.284;2023-02-28T01:40:40;1.77;;;1.35;;
42632;SDS011;28261;53.304;-6.284;2023-02-28T01:42:44;2.72;;;1.15;;
42632;SDS011;28261;53.304;-6.284;2023-02-28T01:44:59;4.53;;;1.30;;
42632;SDS011;28261;53.304;-6.284;2023-02-28T01:47:06;3.97;;;0.80;;
42632;SDS011;28261;53.304;-6.284;2023-02-28T01:49:11;2.72;;;0.90;;
42632;SDS011;28261;53.304;-6.284;2023-02-28T01:51:19;1.95;;;1.45;;
42632;SDS011;28261;53.304;-6.284;2023-02-28T01:53:26;1.17;;;1.08;;
42632;SDS011;28261;53.304;-6.284;2023-02-28T01:55:37;4.18;;;1.35;;
42632;SDS011;28261;53.304;-6.284;2023-02-28T01:57:45;3.13;;;1.73;;
42632;SDS011;28261;53.304;-6.284;2023-02-28T01:59:52;2.60;;;1.52;;
42632;SDS011;28261;53.304;-6.284;2023-02-28T02:02:01;3.55;;;0.60;;
42632;SDS011;28261;53.304;-6.284;2023-02-28T02:04:06;3.05;;;1.13;;
42632;SDS011;28261;53.304;-6.284;2023-02-28T02:06:10;0.95;;;0.75;;
42632;SDS011;28261;53.304;-6.284;2023-02-28T02:08:17;2.70;;;1.05;;
42632;SDS011;28261;53.304;-6.284;2023-02-28T02:10:25;2.78;;;1.30;;
42632;SDS011;28261;53.304;-6.284;2023-02-28T02:12:38;1.98;;;0.98;;
42632;SDS011;28261;53.304;-6.284;2023-02-28T02:14:58;1.90;;;1.20;;
42632;SDS011;28261;53.304;-6.284;2023-02-28T02:17:10;4.50;;;1.27;;
42632;SDS011;28261;53.304;-6.284;2023-02-28T02:19:28;6.50;;;2.05;;
42632;SDS011;28261;53.304;-6.284;2023-02-28T02:24:31;4.00;;;1.33;;
42632;SDS011;28261;53.304;-6.284;2023-02-28T02:26:52;1.60;;;1.00;;
42632;SDS011;28261;53.304;-6.284;2023-02-28T02:29:22;1.58;;;0.80;;
42632;SDS011;28261;53.304;-6.284;2023-02-28T02:31:54;2.83;;;1.00;;
42632;SDS011;28261;53.304;-6.284;2023-02-28T02:34:17;3.38;;;1.77;;
42632;SDS011;28261;53.304;-6.284;2023-02-28T02:36:35;3.47;;;1.35;;
42632;SDS011;28261;53.304;-6.284;2023-02-28T02:38:44;2.25;;;1.27;;
42632;SDS011;28261;53.304;-6.284;2023-02-28T02:40:56;4.50;;;1.63;;
42632;SDS011;28261;53.304;-6.284;2023-02-28T02:43:06;3.67;;;1.33;;
42632;SDS011;28261;53.304;-6.284;2023-02-28T02:45:17;3.40;;;2.15;;
42632;SDS011;28261;53.304;-6.284;2023-02-28T02:47:26;2.67;;;1.10;;
42632;SDS011;28261;53.304;-6.284;2023-02-28T02:49:35;1.90;;;1.20;;
42632;SDS011;28261;53.304;-6.284;2023-02-28T02:51:41;5.50;;;1.50;;
42632;SDS011;28261;53.304;-6.284;2023-02-28T02:53:47;2.35;;;1.65;;
42632;SDS011;28261;53.304;-6.284;2023-02-28T02:55:54;3.90;;;1.60;;
42632;SDS011;28261;53.304;-6.284;2023-02-28T02:58:01;2.58;;;1.10;;
42632;SDS011;28261;53.304;-6.284;2023-02-28T03:00:08;5.95;;;1.45;;
42632;SDS011;28261;53.304;-6.284;2023-02-28T03:02:14;3.13;;;1.23;;
42632;SDS011;28261;53.304;-6.284;2023-02-28T03:04:22;2.58;;;1.35;;
42632;SDS011;28261;53.304;-6.284;2023-02-28T03:06:31;2.25;;;1.10;;
42632;SDS011;28261;53.304;-6.284;2023-02-28T03:08:35;3.20;;;1.05;;
42632;SDS011;28261;53.304;-6.284;2023-02-28T03:10:41;6.38;;;1.13;;
42632;SDS011;28261;53.304;-6.284;2023-02-28T03:15:23;4.75;;;1.30;;
42632;SDS011;28261;53.304;-6.284;2023-02-28T03:17:43;1.42;;;1.25;;
42632;SDS011;28261;53.304;-6.284;2023-02-28T03:20:01;5.57;;;1.52;;
42632;SDS011;28261;53.304;-6.284;2023-02-28T03:22:19;1.85;;;1.20;;
42632;SDS011;28261;53.304;-6.284;2023-02-28T03:24:33;6.97;;;0.80;;
42632;SDS011;28261;53.304;-6.284;2023-02-28T03:26:45;3.38;;;1.33;;
42632;SDS011;28261;53.304;-6.284;2023-02-28T03:28:57;3.05;;;1.33;;
42632;SDS011;28261;53.304;-6.284;2023-02-28T03:31:07;1.35;;;1.08;;
42632;SDS011;28261;53.304;-6.284;2023-02-28T03:33:18;5.28;;;1.10;;
42632;SDS011;28261;53.304;-6.284;2023-02-28T03:35:28;2.05;;;1.30;;
42632;SDS011;28261;53.304;-6.284;2023-02-28T03:37:38;2.05;;;1.17;;
42632;SDS011;28261;53.304;-6.284;2023-02-28T03:39:46;2.83;;;1.55;;
42632;SDS011;28261;53.304;-6.284;2023-02-28T03:41:54;2.72;;;1.20;;
42632;SDS011;28261;53.304;-6.284;2023-02-28T03:44:03;4.97;;;1.73;;
42632;SDS011;28261;53.304;-6.284;2023-02-28T03:46:12;4.85;;;0.98;;
42632;SDS011;28261;53.304;-6.284;2023-02-28T03:48:24;4.35;;;1.13;;
42632;SDS011;28261;53.304;-6.284;2023-02-28T03:50:34;6.43;;;1.48;;
42632;SDS011;28261;53.304;-6.284;2023-02-28T03:52:43;1.48;;;1.17;;
42632;SDS011;28261;53.304;-6.284;2023-02-28T03:56:59;2.65;;;1.15;;
42632;SDS011;28261;53.304;-6.284;2023-02-28T03:59:10;5.55;;;1.33;;
42632;SDS011;28261;53.304;-6.284;2023-02-28T04:01:18;1.98;;;1.40;;
42632;SDS011;28261;53.304;-6.284;2023-02-28T04:03:26;5.35;;;1.13;;
42632;SDS011;28261;53.304;-6.284;2023-02-28T04:05:30;1.52;;;1.10;;
42632;SDS011;28261;53.304;-6.284;2023-02-28T04:07:34;2.85;;;1.70;;
42632;SDS011;28261;53.304;-6.284;2023-02-28T04:09:40;3.63;;;1.00;;
42632;SDS011;28261;53.304;-6.284;2023-02-28T04:11:44;2.47;;;1.10;;
42632;SDS011;28261;53.304;-6.284;2023-02-28T04:13:53;2.30;;;1.25;;
42632;SDS011;28261;53.304;-6.284;2023-02-28T04:15:56;5.55;;;1.83;;
42632;SDS011;28261;53.304;-6.284;2023-02-28T04:18:00;3.70;;;1.30;;
42632;SDS011;28261;53.304;-6.284;2023-02-28T04:20:04;2.47;;;1.20;;
42632;SDS011;28261;53.304;-6.284;2023-02-28T04:22:11;1.45;;;1.00;;
42632;SDS011;28261;53.304;-6.284;2023-02-28T04:24:16;1.83;;;1.42;;
42632;SDS011;28261;53.304;-6.284;2023-02-28T04:26:22;3.83;;;0.70;;
42632;SDS011;28261;53.304;-6.284;2023-02-28T04:28:25;3.88;;;1.15;;
42632;SDS011;28261;53.304;-6.284;2023-02-28T04:30:29;3.17;;;1.00;;
42632;SDS011;28261;53.304;-6.284;2023-02-28T04:32:34;1.77;;;1.02;;
42632;SDS011;28261;53.304;-6.284;2023-02-28T04:34:37;5.50;;;1.52;;
42632;SDS011;28261;53.304;-6.284;2023-02-28T04:36:41;5.38;;;1.38;;
42632;SDS011;28261;53.304;-6.284;2023-02-28T04:38:45;3.17;;;1.20;;
42632;SDS011;28261;53.304;-6.284;2023-02-28T04:40:49;4.07;;;1.38;;
42632;SDS011;28261;53.304;-6.284;2023-02-28T04:42:54;2.17;;;1.08;;
42632;SDS011;28261;53.304;-6.284;2023-02-28T04:44:57;6.03;;;1.25;;
42632;SDS011;28261;53.304;-6.284;2023-02-28T04:47:01;4.55;;;1.38;;
42632;SDS011;28261;53.304;-6.284;2023-02-28T04:49:05;5.10;;;1.25;;
42632;SDS011;28261;53.304;-6.284;2023-02-28T04:51:09;3.40;;;1.25;;
42632;SDS011;28261;53.304;-6.284;2023-02-28T04:53:13;3.15;;;1.02;;
42632;SDS011;28261;53.304;-6.284;2023-02-28T04:55:17;1.23;;;1.00;;
42632;SDS011;28261;53.304;-6.284;2023-02-28T04:57:20;4.50;;;1.65;;
42632;SDS011;28261;53.304;-6.284;2023-02-28T04:59:26;3.97;;;1.45;;
42632;SDS011;28261;53.304;-6.284;2023-02-28T05:01:30;5.60;;;1.52;;
42632;SDS011;28261;53.304;-6.284;2023-02-28T05:03:36;3.72;;;1.25;;
42632;SDS011;28261;53.304;-6.284;2023-02-28T05:05:40;4.50;;;2.05;;
42632;SDS011;28261;53.304;-6.284;2023-02-28T05:07:44;3.53;;;1.75;;
42632;SDS011;28261;53.304;-6.284;2023-02-28T05:09:47;4.47;;;1.90;;
42632;SDS011;28261;53.304;-6.284;2023-02-28T05:11:51;4.15;;;1.95;;
42632;SDS011;28261;53.304;-6.284;2023-02-28T05:13:55;4.57;;;2.33;;
42632;SDS011;28261;53.304;-6.284;2023-02-28T05:16:00;5.35;;;2.03;;
42632;SDS011;28261;53.304;-6.284;2023-02-28T05:18:04;2.85;;;1.33;;
42632;SDS011;28261;53.304;-6.284;2023-02-28T05:20:08;2.05;;;1.08;;
42632;SDS011;28261;53.304;-6.284;2023-02-28T05:22:16;3.08;;;0.90;;
42632;SDS011;28261;53.304;-6.284;2023-02-28T05:24:20;1.00;;;0.90;;
42632;SDS011;28261;53.304;-6.284;2023-02-28T05:26:25;1.33;;;1.23;;
42632;SDS011;28261;53.304;-6.284;2023-02-28T05:28:29;1.30;;;1.00;;
42632;SDS011;28261;53.304;-6.284;2023-02-28T05:30:33;1.67;;;0.70;;
42632;SDS011;28261;53.304;-6.284;2023-02-28T05:32:38;2.78;;;1.55;;
42632;SDS011;28261;53.304;-6.284;2023-02-28T05:34:44;1.30;;;1.15;;
42632;SDS011;28261;53.304;-6.284;2023-02-28T05:36:48;1.67;;;1.27;;
42632;SDS011;28261;53.304;-6.284;2023-02-28T05:38:51;2.42;;;1.77;;
42632;SDS011;28261;53.304;-6.284;2023-02-28T05:40:55;3.55;;;1.55;;
42632;SDS011;28261;53.304;-6.284;2023-02-28T05:42:59;3.95;;;1.95;;
42632;SDS011;28261;53.304;-6.284;2023-02-28T05:45:02;2.17;;;1.05;;
42632;SDS011;28261;53.304;-6.284;2023-02-28T05:47:07;2.03;;;1.77;;
42632;SDS011;28261;53.304;-6.284;2023-02-28T05:49:12;1.70;;;1.42;;
42632;SDS011;28261;53.304;-6.284;2023-02-28T05:55:23;2.50;;;0.70;;
42632;SDS011;28261;53.304;-6.284;2023-02-28T05:57:27;1.65;;;1.55;;
42632;SDS011;28261;53.304;-6.284;2023-02-28T05:59:30;1.73;;;1.40;;
42632;SDS011;28261;53.304;-6.284;2023-02-28T06:01:35;1.90;;;1.23;;
42632;SDS011;28261;53.304;-6.284;2023-02-28T06:03:40;3.00;;;1.27;;
42632;SDS011;28261;53.304;-6.284;2023-02-28T06:05:45;1.63;;;1.45;;
42632;SDS011;28261;53.304;-6.284;2023-02-28T06:07:48;3.30;;;1.25;;
42632;SDS011;28261;53.304;-6.284;2023-02-28T06:09:52;1.58;;;1.35;;
42632;SDS011;28261;53.304;-6.284;2023-02-28T06:11:57;1.42;;;1.13;;
42632;SDS011;28261;53.304;-6.284;2023-02-28T06:14:01;2.13;;;1.55;;
42632;SDS011;28261;53.304;-6.284;2023-02-28T06:16:05;4.53;;;1.42;;
42632;SDS011;28261;53.304;-6.284;2023-02-28T06:18:09;2.55;;;1.50;;
42632;SDS011;28261;53.304;-6.284;2023-02-28T06:20:13;3.53;;;2.50;;
42632;SDS011;28261;53.304;-6.284;2023-02-28T06:22:18;4.60;;;1.73;;
42632;SDS011;28261;53.304;-6.284;2023-02-28T06:24:22;4.93;;;1.65;;
42632;SDS011;28261;53.304;-6.284;2023-02-28T06:26:26;2.33;;;1.52;;
42632;SDS011;28261;53.304;-6.284;2023-02-28T06:28:30;4.93;;;1.80;;
42632;SDS011;28261;53.304;-6.284;2023-02-28T06:30:34;2.10;;;1.77;;
42632;SDS011;28261;53.304;-6.284;2023-02-28T06:32:37;2.33;;;1.10;;
42632;SDS011;28261;53.304;-6.284;2023-02-28T06:34:41;3.58;;;1.48;;
42632;SDS011;28261;53.304;-6.284;2023-02-28T06:36:45;4.32;;;1.60;;
42632;SDS011;28261;53.304;-6.284;2023-02-28T06:38:50;3.25;;;1.73;;
42632;SDS011;28261;53.304;-6.284;2023-02-28T06:40:56;2.78;;;1.60;;
42632;SDS011;28261;53.304;-6.284;2023-02-28T06:43:01;1.83;;;1.45;;
42632;SDS011;28261;53.304;-6.284;2023-02-28T06:45:05;3.40;;;1.42;;
42632;SDS011;28261;53.304;-6.284;2023-02-28T06:47:11;4.88;;;1.63;;
42632;SDS011;28261;53.304;-6.284;2023-02-28T06:49:14;3.10;;;2.10;;
42632;SDS011;28261;53.304;-6.284;2023-02-28T06:51:19;4.25;;;1.73;;
42632;SDS011;28261;53.304;-6.284;2023-02-28T06:53:26;2.95;;;1.95;;
42632;SDS011;28261;53.304;-6.284;2023-02-28T06:55:31;7.72;;;2.20;;
42632;SDS011;28261;53.304;-6.284;2023-02-28T06:59:38;2.88;;;2.63;;
42632;SDS011;28261;53.304;-6.284;2023-02-28T07:01:42;9.32;;;2.13;;
42632;SDS011;28261;53.304;-6.284;2023-02-28T07:03:46;2.63;;;1.80;;
42632;SDS011;28261;53.304;-6.284;2023-02-28T07:05:53;5.50;;;2.60;;
42632;SDS011;28261;53.304;-6.284;2023-02-28T07:07:58;4.15;;;2.20;;
42632;SDS011;28261;53.304;-6.284;2023-02-28T07:10:02;2.60;;;2.15;;
42632;SDS011;28261;53.304;-6.284;2023-02-28T07:12:07;3.53;;;2.15;;
42632;SDS011;28261;53.304;-6.284;2023-02-28T07:14:11;3.58;;;2.45;;
42632;SDS011;28261;53.304;-6.284;2023-02-28T07:16:15;5.65;;;1.80;;
42632;SDS011;28261;53.304;-6.284;2023-02-28T07:18:18;7.22;;;2.83;;
42632;SDS011;28261;53.304;-6.284;2023-02-28T07:20:22;4.63;;;2.58;;
42632;SDS011;28261;53.304;-6.284;2023-02-28T07:22:26;3.90;;;2.67;;
42632;SDS011;28261;53.304;-6.284;2023-02-28T07:24:30;4.07;;;2.33;;
42632;SDS011;28261;53.304;-6.284;2023-02-28T07:26:34;4.13;;;2.42;;
42632;SDS011;28261;53.304;-6.284;2023-02-28T07:28:39;6.22;;;2.88;;
42632;SDS011;28261;53.304;-6.284;2023-02-28T07:30:43;5.75;;;2.88;;
42632;SDS011;28261;53.304;-6.284;2023-02-28T07:32:47;6.00;;;2.95;;
42632;SDS011;28261;53.304;-6.284;2023-02-28T07:34:51;4.50;;;3.00;;
42632;SDS011;28261;53.304;-6.284;2023-02-28T07:36:54;5.72;;;2.50;;
42632;SDS011;28261;53.304;-6.284;2023-02-28T07:39:00;3.85;;;2.92;;
42632;SDS011;28261;53.304;-6.284;2023-02-28T07:41:08;4.65;;;2.42;;
42632;SDS011;28261;53.304;-6.284;2023-02-28T07:43:13;7.90;;;2.63;;
42632;SDS011;28261;53.304;-6.284;2023-02-28T07:45:18;4.75;;;3.08;;
42632;SDS011;28261;53.304;-6.284;2023-02-28T07:47:22;6.18;;;2.47;;
42632;SDS011;28261;53.304;-6.284;2023-02-28T07:49:26;6.05;;;2.70;;
42632;SDS011;28261;53.304;-6.284;2023-02-28T07:51:29;5.35;;;3.38;;
42632;SDS011;28261;53.304;-6.284;2023-02-28T07:53:34;3.83;;;1.80;;
42632;SDS011;28261;53.304;-6.284;2023-02-28T07:55:37;3.45;;;1.80;;
42632;SDS011;28261;53.304;-6.284;2023-02-28T07:57:41;5.30;;;1.67;;
42632;SDS011;28261;53.304;-6.284;2023-02-28T07:59:45;2.58;;;2.03;;
42632;SDS011;28261;53.304;-6.284;2023-02-28T08:01:50;3.53;;;1.30;;
42632;SDS011;28261;53.304;-6.284;2023-02-28T08:03:54;5.18;;;1.45;;
42632;SDS011;28261;53.304;-6.284;2023-02-28T08:05:58;4.65;;;1.73;;
42632;SDS011;28261;53.304;-6.284;2023-02-28T08:12:11;3.22;;;1.63;;
42632;SDS011;28261;53.304;-6.284;2023-02-28T08:14:15;3.75;;;1.70;;
42632;SDS011;28261;53.304;-6.284;2023-02-28T08:16:19;5.13;;;1.75;;
42632;SDS011;28261;53.304;-6.284;2023-02-28T08:18:25;1.95;;;1.52;;
42632;SDS011;28261;53.304;-6.284;2023-02-28T08:20:29;1.88;;;1.55;;
42632;SDS011;28261;53.304;-6.284;2023-02-28T08:22:32;2.30;;;1.75;;
42632;SDS011;28261;53.304;-6.284;2023-02-28T08:24:36;4.60;;;1.50;;
42632;SDS011;28261;53.304;-6.284;2023-02-28T08:26:40;2.45;;;1.80;;
42632;SDS011;28261;53.304;-6.284;2023-02-28T08:28:44;2.97;;;2.00;;
42632;SDS011;28261;53.304;-6.284;2023-02-28T08:30:48;4.95;;;1.70;;
42632;SDS011;28261;53.304;-6.284;2023-02-28T08:32:51;3.15;;;1.35;;
42632;SDS011;28261;53.304;-6.284;2023-02-28T08:34:58;2.78;;;0.90;;
42632;SDS011;28261;53.304;-6.284;2023-02-28T08:37:02;4.18;;;1.35;;
42632;SDS011;28261;53.304;-6.284;2023-02-28T08:39:06;1.65;;;1.40;;
42632;SDS011;28261;53.304;-6.284;2023-02-28T08:43:14;3.53;;;1.38;;
42632;SDS011;28261;53.304;-6.284;2023-02-28T08:45:18;4.00;;;1.67;;
42632;SDS011;28261;53.304;-6.284;2023-02-28T08:47:22;3.92;;;1.20;;
42632;SDS011;28261;53.304;-6.284;2023-02-28T08:49:25;3.28;;;1.20;;
42632;SDS011;28261;53.304;-6.284;2023-02-28T08:51:31;2.50;;;1.17;;
42632;SDS011;28261;53.304;-6.284;2023-02-28T08:53:35;4.93;;;1.10;;
42632;SDS011;28261;53.304;-6.284;2023-02-28T08:55:39;1.98;;;1.40;;
42632;SDS011;28261;53.304;-6.284;2023-02-28T08:57:43;2.10;;;0.90;;
42632;SDS011;28261;53.304;-6.284;2023-02-28T08:59:46;5.55;;;1.30;;
42632;SDS011;28261;53.304;-6.284;2023-02-28T09:01:50;3.10;;;1.73;;
42632;SDS011;28261;53.304;-6.284;2023-02-28T09:03:54;2.90;;;1.25;;
42632;SDS011;28261;53.304;-6.284;2023-02-28T09:05:59;9.30;;;1.63;;
42632;SDS011;28261;53.304;-6.284;2023-02-28T09:08:05;2.65;;;0.98;;
42632;SDS011;28261;53.304;-6.284;2023-02-28T09:12:12;2.67;;;1.20;;
42632;SDS011;28261;53.304;-6.284;2023-02-28T09:14:16;3.03;;;1.10;;
42632;SDS011;28261;53.304;-6.284;2023-02-28T09:16:20;2.03;;;1.20;;
42632;SDS011;28261;53.304;-6.284;2023-02-28T09:18:24;2.58;;;0.93;;
42632;SDS011;28261;53.304;-6.284;2023-02-28T09:20:28;1.77;;;1.00;;
42632;SDS011;28261;53.304;-6.284;2023-02-28T09:22:32;2.45;;;1.35;;
42632;SDS011;28261;53.304;-6.284;2023-02-28T09:24:37;4.78;;;1.23;;
42632;SDS011;28261;53.304;-6.284;2023-02-28T09:29:03;1.80;;;0.95;;
42632;SDS011;28261;53.304;-6.284;2023-02-28T09:31:10;1.92;;;1.20;;
42632;SDS011;28261;53.304;-6.284;2023-02-28T09:33:16;1.90;;;0.95;;
42632;SDS011;28261;53.304;-6.284;2023-02-28T09:35:22;2.75;;;1.10;;
42632;SDS011;28261;53.304;-6.284;2023-02-28T09:37:28;1.42;;;1.20;;
42632;SDS011;28261;53.304;-6.284;2023-02-28T09:39:32;2.03;;;1.83;;
42632;SDS011;28261;53.304;-6.284;2023-02-28T09:41:39;3.38;;;1.10;;
42632;SDS011;28261;53.304;-6.284;2023-02-28T09:43:50;2.20;;;2.00;;
42632;SDS011;28261;53.304;-6.284;2023-02-28T09:45:59;3.22;;;1.00;;
42632;SDS011;28261;53.304;-6.284;2023-02-28T09:48:10;2.10;;;1.02;;
42632;SDS011;28261;53.304;-6.284;2023-02-28T09:50:21;4.75;;;1.15;;
42632;SDS011;28261;53.304;-6.284;2023-02-28T09:52:35;1.52;;;0.90;;
42632;SDS011;28261;53.304;-6.284;2023-02-28T09:54:40;1.30;;;1.20;;
42632;SDS011;28261;53.304;-6.284;2023-02-28T09:56:47;3.47;;;1.20;;
42632;SDS011;28261;53.304;-6.284;2023-02-28T09:58:56;3.33;;;1.73;;
42632;SDS011;28261;53.304;-6.284;2023-02-28T10:01:09;2.22;;;1.63;;
42632;SDS011;28261;53.304;-6.284;2023-02-28T10:03:24;4.07;;;1.55;;
42632;SDS011;28261;53.304;-6.284;2023-02-28T10:05:33;2.33;;;1.13;;
42632;SDS011;28261;53.304;-6.284;2023-02-28T10:07:55;1.75;;;1.23;;
42632;SDS011;28261;53.304;-6.284;2023-02-28T10:10:10;4.18;;;1.20;;
42632;SDS011;28261;53.304;-6.284;2023-02-28T10:12:26;3.72;;;1.17;;
42632;SDS011;28261;53.304;-6.284;2023-02-28T10:14:33;2.38;;;1.00;;
42632;SDS011;28261;53.304;-6.284;2023-02-28T10:16:38;2.35;;;1.08;;
42632;SDS011;28261;53.304;-6.284;2023-02-28T10:18:50;4.13;;;1.67;;
42632;SDS011;28261;53.304;-6.284;2023-02-28T10:20:58;1.35;;;1.02;;
42632;SDS011;28261;53.304;-6.284;2023-02-28T10:23:04;1.52;;;1.20;;
42632;SDS011;28261;53.304;-6.284;2023-02-28T10:25:17;2.33;;;0.60;;
42632;SDS011;28261;53.304;-6.284;2023-02-28T10:27:23;2.20;;;0.88;;
42632;SDS011;28261;53.304;-6.284;2023-02-28T10:29:31;1.15;;;0.90;;
42632;SDS011;28261;53.304;-6.284;2023-02-28T10:31:36;1.67;;;1.05;;
42632;SDS011;28261;53.304;-6.284;2023-02-28T10:33:42;1.70;;;1.00;;
42632;SDS011;28261;53.304;-6.284;2023-02-28T10:35:47;2.20;;;1.10;;
42632;SDS011;28261;53.304;-6.284;2023-02-28T10:37:53;0.98;;;0.85;;
42632;SDS011;28261;53.304;-6.284;2023-02-28T10:39:59;1.13;;;0.90;;
42632;SDS011;28261;53.304;-6.284;2023-02-28T10:42:03;2.40;;;0.85;;
42632;SDS011;28261;53.304;-6.284;2023-02-28T10:44:17;1.98;;;0.85;;
42632;SDS011;28261;53.304;-6.284;2023-02-28T10:46:26;0.95;;;0.80;;
42632;SDS011;28261;53.304;-6.284;2023-02-28T10:48:34;0.85;;;0.80;;
42632;SDS011;28261;53.304;-6.284;2023-02-28T10:50:42;2.08;;;0.75;;
42632;SDS011;28261;53.304;-6.284;2023-02-28T10:52:48;2.20;;;0.75;;
42632;SDS011;28261;53.304;-6.284;2023-02-28T10:54:53;0.93;;;0.93;;
42632;SDS011;28261;53.304;-6.284;2023-02-28T10:57:19;0.90;;;0.82;;
42632;SDS011;28261;53.304;-6.284;2023-02-28T10:59:27;1.08;;;0.40;;
42632;SDS011;28261;53.304;-6.284;2023-02-28T11:01:39;1.65;;;0.85;;
42632;SDS011;28261;53.304;-6.284;2023-02-28T11:03:45;1.30;;;0.50;;
42632;SDS011;28261;53.304;-6.284;2023-02-28T11:05:49;5.97;;;0.90;;
42632;SDS011;28261;53.304;-6.284;2023-02-28T11:07:54;2.55;;;0.90;;
42632;SDS011;28261;53.304;-6.284;2023-02-28T11:10:00;1.15;;;0.68;;
42632;SDS011;28261;53.304;-6.284;2023-02-28T11:12:05;2.80;;;1.70;;
42632;SDS011;28261;53.304;-6.284;2023-02-28T11:14:16;2.38;;;1.02;;
42632;SDS011;28261;53.304;-6.284;2023-02-28T11:16:31;0.60;;;0.60;;
42632;SDS011;28261;53.304;-6.284;2023-02-28T11:18:40;1.50;;;0.95;;
42632;SDS011;28261;53.304;-6.284;2023-02-28T11:20:47;1.35;;;0.45;;
42632;SDS011;28261;53.304;-6.284;2023-02-28T11:22:53;2.67;;;0.40;;
42632;SDS011;28261;53.304;-6.284;2023-02-28T11:24:59;4.53;;;0.95;;
42632;SDS011;28261;53.304;-6.284;2023-02-28T11:27:05;1.20;;;0.85;;
42632;SDS011;28261;53.304;-6.284;2023-02-28T11:29:16;1.45;;;0.80;;
42632;SDS011;28261;53.304;-6.284;2023-02-28T11:31:22;1.13;;;0.70;;
42632;SDS011;28261;53.304;-6.284;2023-02-28T11:33:29;0.80;;;0.80;;
42632;SDS011;28261;53.304;-6.284;2023-02-28T11:35:36;1.05;;;0.95;;
42632;SDS011;28261;53.304;-6.284;2023-02-28T11:37:42;1.48;;;0.93;;
42632;SDS011;28261;53.304;-6.284;2023-02-28T11:39:47;1.38;;;0.43;;
42632;SDS011;28261;53.304;-6.284;2023-02-28T11:44:50;0.90;;;0.90;;
42632;SDS011;28261;53.304;-6.284;2023-02-28T11:47:07;1.17;;;0.80;;
42632;SDS011;28261;53.304;-6.284;2023-02-28T11:51:32;1.45;;;1.05;;
42632;SDS011;28261;53.304;-6.284;2023-02-28T11:53:46;1.27;;;1.08;;
42632;SDS011;28261;53.304;-6.284;2023-02-28T11:55:59;1.08;;;0.88;;
42632;SDS011;28261;53.304;-6.284;2023-02-28T12:00:32;1.77;;;1.15;;
42632;SDS011;28261;53.304;-6.284;2023-02-28T12:02:50;1.30;;;1.20;;
42632;SDS011;28261;53.304;-6.284;2023-02-28T12:05:12;1.95;;;0.85;;
42632;SDS011;28261;53.304;-6.284;2023-02-28T12:07:28;1.20;;;0.75;;
42632;SDS011;28261;53.304;-6.284;2023-02-28T12:09:56;3.22;;;1.10;;
42632;SDS011;28261;53.304;-6.284;2023-02-28T12:12:14;0.93;;;0.77;;
42632;SDS011;28261;53.304;-6.284;2023-02-28T12:17:02;2.65;;;1.08;;
42632;SDS011;28261;53.304;-6.284;2023-02-28T12:19:21;2.95;;;1.30;;
42632;SDS011;28261;53.304;-6.284;2023-02-28T12:21:31;6.20;;;1.00;;
42632;SDS011;28261;53.304;-6.284;2023-02-28T12:23:50;1.25;;;1.15;;
42632;SDS011;28261;53.304;-6.284;2023-02-28T12:26:07;2.33;;;1.20;;
42632;SDS011;28261;53.304;-6.284;2023-02-28T12:28:20;2.83;;;0.98;;
42632;SDS011;28261;53.304;-6.284;2023-02-28T12:30:28;2.42;;;1.10;;
42632;SDS011;28261;53.304;-6.284;2023-02-28T12:32:37;1.75;;;1.50;;
42632;SDS011;28261;53.304;-6.284;2023-02-28T12:34:46;1.95;;;1.13;;
42632;SDS011;28261;53.304;-6.284;2023-02-28T12:36:54;1.67;;;1.00;;
42632;SDS011;28261;53.304;-6.284;2023-02-28T12:39:04;3.63;;;1.05;;
42632;SDS011;28261;53.304;-6.284;2023-02-28T12:41:15;1.20;;;1.17;;
42632;SDS011;28261;53.304;-6.284;2023-02-28T12:43:22;1.83;;;0.90;;
42632;SDS011;28261;53.304;-6.284;2023-02-28T12:45:32;2.03;;;1.15;;
42632;SDS011;28261;53.304;-6.284;2023-02-28T12:47:42;2.25;;;1.02;;
42632;SDS011;28261;53.304;-6.284;2023-02-28T12:49:50;1.13;;;1.00;;
42632;SDS011;28261;53.304;-6.284;2023-02-28T12:51:57;1.75;;;0.60;;
42632;SDS011;28261;53.304;-6.284;2023-02-28T12:54:07;2.45;;;1.55;;
42632;SDS011;28261;53.304;-6.284;2023-02-28T12:56:18;4.18;;;1.48;;
42632;SDS011;28261;53.304;-6.284;2023-02-28T12:58:34;1.10;;;1.00;;
42632;SDS011;28261;53.304;-6.284;2023-02-28T13:00:44;1.55;;;1.08;;
42632;SDS011;28261;53.304;-6.284;2023-02-28T13:03:21;2.53;;;1.52;;
42632;SDS011;28261;53.304;-6.284;2023-02-28T13:05:50;2.55;;;1.20;;
42632;SDS011;28261;53.304;-6.284;2023-02-28T13:08:24;2.78;;;1.40;;